Time,TemperatureF,DewpointF,PressureIn,WindDirection,WindDirectionDegrees,WindSpeedMPH,WindSpeedGustMPH,Humidity,HourlyPrecipIn,Conditions,Clouds,dailyrainin,SoftwareType,DateUTC
2013-09-16 00:01:00,67.1,66.7,29.60,NE,45,3.0,3.0,99,0.00,,,0.41,meteohub,2013-09-16 06:01:00,
2013-09-16 00:06:00,67.1,66.7,29.59,East,90,0.0,4.0,99,0.00,,,0.00,meteohub,2013-09-16 06:06:00,
2013-09-16 00:11:00,67.3,66.9,29.58,NE,45,2.0,4.0,99,0.00,,,0.00,meteohub,2013-09-16 06:11:00,
2013-09-16 00:16:00,67.3,66.9,29.57,NE,45,0.0,3.0,99,0.00,,,0.00,meteohub,2013-09-16 06:16:00,
2013-09-16 00:21:00,67.3,66.9,29.57,NE,45,2.0,2.0,99,0.00,,,0.00,meteohub,2013-09-16 06:21:00,
2013-09-16 00:26:00,67.5,67.1,29.58,East,90,0.0,2.0,99,0.00,,,0.00,meteohub,2013-09-16 06:26:00,
2013-09-16 00:31:00,67.5,67.1,29.57,SE,135,2.0,2.0,99,0.00,,,0.00,meteohub,2013-09-16 06:31:00,
2013-09-16 00:36:00,67.5,67.1,29.57,SE,135,0.0,2.0,99,0.00,,,0.00,meteohub,2013-09-16 06:36:00,
2013-09-16 00:41:00,67.5,67.1,29.56,South,180,0.0,2.0,99,0.00,,,0.00,meteohub,2013-09-16 06:41:00,
2013-09-16 00:46:00,67.5,67.1,29.56,South,180,4.0,4.0,99,0.00,,,0.00,meteohub,2013-09-16 06:46:00,
2013-09-16 00:51:00,67.3,66.9,29.57,South,180,3.0,4.0,99,0.00,,,0.00,meteohub,2013-09-16 06:51:00,
2013-09-16 00:56:00,67.3,66.9,29.57,South,180,5.0,5.0,99,0.00,,,0.00,meteohub,2013-09-16 06:56:00,
2013-09-16 01:01:00,66.9,66.6,29.56,SE,135,4.0,7.0,99,0.00,,,0.00,meteohub,2013-09-16 07:01:00,
2013-09-16 01:06:00,66.7,66.4,29.56,South,180,2.0,7.0,99,0.00,,,0.00,meteohub,2013-09-16 07:06:00,
2013-09-16 01:11:00,66.7,66.4,29.57,South,180,2.0,7.0,99,0.00,,,0.00,meteohub,2013-09-16 07:11:00,
2013-09-16 01:16:00,66.6,66.2,29.57,South,180,3.0,6.0,99,0.00,,,0.00,meteohub,2013-09-16 07:16:00,
2013-09-16 01:21:00,66.6,66.2,29.57,East,90,2.0,4.0,99,0.00,,,0.00,meteohub,2013-09-16 07:21:00,
2013-09-16 01:26:00,66.6,66.2,29.56,East,90,1.0,4.0,99,0.00,,,0.00,meteohub,2013-09-16 07:26:00,
2013-09-16 01:31:00,66.6,66.2,29.57,South,180,4.0,4.0,99,0.00,,,0.00,meteohub,2013-09-16 07:31:00,
2013-09-16 01:36:00,66.6,66.2,29.57,East,90,0.0,4.0,99,0.00,,,0.00,meteohub,2013-09-16 07:36:00,
2013-09-16 01:42:00,66.6,66.2,29.57,SE,135,0.0,4.0,99,0.00,,,0.00,meteohub,2013-09-16 07:42:00,
2013-09-16 01:47:00,66.4,66.0,29.57,SE,135,0.0,4.0,99,0.00,,,0.00,meteohub,2013-09-16 07:47:00,
2013-09-16 01:52:00,66.4,66.0,29.56,South,180,0.0,2.0,99,0.00,,,0.00,meteohub,2013-09-16 07:52:00,
2013-09-16 01:57:00,66.4,66.0,29.56,North,0,0.0,1.0,99,0.00,,,0.00,meteohub,2013-09-16 07:57:00,
2013-09-16 02:02:00,66.2,65.8,29.55,NE,45,2.0,0.0,99,0.00,,,0.00,meteohub,2013-09-16 08:02:00,
2013-09-16 02:07:00,66.0,65.7,29.56,East,90,2.0,2.0,99,0.00,,,0.00,meteohub,2013-09-16 08:07:00,
2013-09-16 02:12:00,66.0,65.7,29.55,SE,135,3.0,3.0,99,0.00,,,0.00,meteohub,2013-09-16 08:12:00,
2013-09-16 02:17:00,66.0,65.7,29.55,East,90,3.0,4.0,99,0.00,,,0.00,meteohub,2013-09-16 08:17:00,
2013-09-16 02:22:00,66.0,65.7,29.56,East,90,4.0,4.0,99,0.00,,,0.00,meteohub,2013-09-16 08:22:00,
2013-09-16 02:27:00,66.2,65.8,29.56,SE,135,4.0,4.0,99,0.00,,,0.00,meteohub,2013-09-16 08:27:00,
2013-09-16 02:32:00,66.2,65.8,29.55,SE,135,5.0,5.0,99,0.00,,,0.00,meteohub,2013-09-16 08:32:00,
2013-09-16 02:37:00,66.4,66.0,29.55,SE,135,4.0,7.0,99,0.00,,,0.00,meteohub,2013-09-16 08:37:00,
2013-09-16 02:42:00,66.4,65.8,29.55,SE,135,5.0,7.0,98,0.00,,,0.00,meteohub,2013-09-16 08:42:00,
2013-09-16 02:47:00,66.4,65.5,29.55,East,90,4.0,7.0,97,0.00,,,0.00,meteohub,2013-09-16 08:47:00,
2013-09-16 02:52:00,66.4,65.1,29.55,SE,135,2.0,5.0,96,0.00,,,0.00,meteohub,2013-09-16 08:52:00,
2013-09-16 02:57:00,66.4,65.1,29.55,South,180,4.0,5.0,96,0.00,,,0.00,meteohub,2013-09-16 08:57:00,
2013-09-16 03:02:00,66.4,64.9,29.55,SE,135,3.0,4.0,95,0.00,,,0.00,meteohub,2013-09-16 09:02:00,
2013-09-16 03:07:00,66.4,64.9,29.55,East,90,4.0,4.0,95,0.00,,,0.00,meteohub,2013-09-16 09:07:00,
2013-09-16 03:12:00,66.4,64.9,29.56,SE,135,3.0,4.0,95,0.00,,,0.00,meteohub,2013-09-16 09:12:00,
2013-09-16 03:17:00,66.2,64.4,29.56,South,180,4.0,4.0,94,0.00,,,0.00,meteohub,2013-09-16 09:17:00,
2013-09-16 03:22:00,66.2,64.8,29.57,South,180,3.0,4.0,95,0.00,,,0.00,meteohub,2013-09-16 09:22:00,
2013-09-16 03:27:00,66.0,64.8,29.57,East,90,3.0,4.0,96,0.00,,,0.00,meteohub,2013-09-16 09:27:00,
2013-09-16 03:32:00,65.8,64.6,29.57,SE,135,4.0,4.0,96,0.00,,,0.00,meteohub,2013-09-16 09:32:00,
2013-09-16 03:37:00,65.8,64.9,29.57,East,90,3.0,4.0,97,0.00,,,0.00,meteohub,2013-09-16 09:37:00,
2013-09-16 03:42:00,65.8,64.9,29.57,East,90,4.0,5.0,97,0.00,,,0.00,meteohub,2013-09-16 09:42:00,
2013-09-16 03:47:00,65.7,65.1,29.58,ENE,68,4.0,5.0,98,0.00,,,0.00,meteohub,2013-09-16 09:47:00,
2013-09-16 03:52:00,65.8,64.9,29.57,East,90,2.0,5.0,97,0.00,,,0.00,meteohub,2013-09-16 09:52:00,
2013-09-16 03:57:00,65.8,64.9,29.57,SE,135,4.0,4.0,97,0.00,,,0.00,meteohub,2013-09-16 09:57:00,
2013-09-16 04:02:00,65.8,64.9,29.58,NE,45,3.0,5.0,97,0.00,,,0.00,meteohub,2013-09-16 10:02:00,
2013-09-16 04:07:00,65.8,64.6,29.57,NE,45,6.0,6.0,96,0.00,,,0.00,meteohub,2013-09-16 10:07:00,
2013-09-16 04:12:00,65.7,64.4,29.57,NE,45,4.0,6.0,96,0.00,,,0.00,meteohub,2013-09-16 10:12:00,
2013-09-16 04:17:00,65.8,64.6,29.57,SW,225,3.0,6.0,96,0.00,,,0.00,meteohub,2013-09-16 10:17:00,
2013-09-16 04:22:00,65.8,64.6,29.58,SW,225,4.0,6.0,96,0.00,,,0.00,meteohub,2013-09-16 10:22:00,
2013-09-16 04:27:00,65.7,64.4,29.57,SE,135,4.0,4.0,96,0.00,,,0.00,meteohub,2013-09-16 10:27:00,
2013-09-16 04:32:00,65.5,64.6,29.57,SE,135,4.0,4.0,97,0.00,,,0.00,meteohub,2013-09-16 10:32:00,
2013-09-16 04:37:00,65.3,64.8,29.57,South,180,3.0,5.0,98,0.00,,,0.00,meteohub,2013-09-16 10:37:00,
2013-09-16 04:42:00,65.3,64.8,29.57,SE,135,4.0,5.0,98,0.00,,,0.00,meteohub,2013-09-16 10:42:00,
2013-09-16 04:47:00,65.3,64.8,29.57,SE,135,2.0,5.0,98,0.00,,,0.00,meteohub,2013-09-16 10:47:00,
2013-09-16 04:52:00,65.3,64.8,29.57,East,90,2.0,4.0,98,0.00,,,0.00,meteohub,2013-09-16 10:52:00,
2013-09-16 04:57:00,65.1,64.6,29.57,NE,45,3.0,4.0,98,0.00,,,0.00,meteohub,2013-09-16 10:57:00,
2013-09-16 05:02:00,64.9,64.4,29.57,East,90,2.0,3.0,98,0.00,,,0.00,meteohub,2013-09-16 11:02:00,
2013-09-16 05:07:00,64.9,64.4,29.58,SW,225,0.0,3.0,98,0.00,,,0.00,meteohub,2013-09-16 11:07:00,
2013-09-16 05:12:00,64.9,64.4,29.58,South,180,0.0,3.0,98,0.00,,,0.00,meteohub,2013-09-16 11:12:00,
2013-09-16 05:17:00,64.8,64.4,29.59,SW,225,0.0,3.0,99,0.00,,,0.00,meteohub,2013-09-16 11:17:00,
2013-09-16 05:22:00,64.8,64.4,29.59,North,0,0.0,2.0,99,0.00,,,0.00,meteohub,2013-09-16 11:22:00,
2013-09-16 05:27:00,64.8,64.4,29.59,North,0,4.0,4.0,99,0.00,,,0.00,meteohub,2013-09-16 11:27:00,
2013-09-16 05:32:00,64.6,64.2,29.58,North,0,0.0,4.0,99,0.00,,,0.00,meteohub,2013-09-16 11:32:00,
2013-09-16 05:37:00,64.4,64.0,29.58,NW,315,0.0,4.0,99,0.00,,,0.00,meteohub,2013-09-16 11:37:00,
2013-09-16 05:42:00,64.6,64.2,29.59,NW,315,2.0,4.0,99,0.00,,,0.00,meteohub,2013-09-16 11:42:00,
2013-09-16 05:47:00,64.8,64.4,29.59,West,270,0.0,3.0,99,0.00,,,0.00,meteohub,2013-09-16 11:47:00,
2013-09-16 05:52:00,64.9,64.6,29.59,NW,315,2.0,3.0,99,0.00,,,0.00,meteohub,2013-09-16 11:52:00,
2013-09-16 05:57:00,65.1,64.8,29.59,NW,315,0.0,2.0,99,0.00,,,0.00,meteohub,2013-09-16 11:57:00,
2013-09-16 06:02:00,65.3,64.9,29.60,NE,45,3.0,4.0,99,0.00,,,0.00,meteohub,2013-09-16 12:02:00,
2013-09-16 06:07:00,65.3,64.9,29.60,NE,45,4.0,4.0,99,0.00,,,0.00,meteohub,2013-09-16 12:07:00,
2013-09-16 06:12:00,65.5,64.9,29.59,NE,45,4.0,6.0,98,0.00,,,0.00,meteohub,2013-09-16 12:12:00,
2013-09-16 06:17:00,65.7,64.8,29.59,NE,45,4.0,6.0,97,0.00,,,0.00,meteohub,2013-09-16 12:17:00,
2013-09-16 06:22:00,65.7,64.8,29.60,NE,45,6.0,6.0,97,0.00,,,0.00,meteohub,2013-09-16 12:22:00,
2013-09-16 06:27:00,65.8,64.6,29.60,NE,45,5.0,8.0,96,0.00,,,0.00,meteohub,2013-09-16 12:27:00,
2013-09-16 06:32:00,66.2,64.8,29.60,NE,45,4.0,8.0,95,0.00,,,0.00,meteohub,2013-09-16 12:32:00,
2013-09-16 06:37:00,66.7,64.9,29.61,NE,45,4.0,8.0,94,0.00,,,0.00,meteohub,2013-09-16 12:37:00,
2013-09-16 06:42:00,67.3,65.1,29.60,East,90,4.0,7.0,93,0.00,,,0.00,meteohub,2013-09-16 12:42:00,
2013-09-16 06:47:00,67.6,65.3,29.60,East,90,4.0,7.0,92,0.00,,,0.00,meteohub,2013-09-16 12:47:00,
2013-09-16 06:52:00,68.2,65.1,29.61,South,180,4.0,6.0,90,0.00,,,0.00,meteohub,2013-09-16 12:52:00,
2013-09-16 06:57:00,68.4,64.9,29.60,South,180,4.0,6.0,89,0.00,,,0.00,meteohub,2013-09-16 12:57:00,
2013-09-16 07:02:00,68.7,65.3,29.61,South,180,3.0,4.0,89,0.00,,,0.00,meteohub,2013-09-16 13:02:00,
2013-09-16 07:07:00,68.9,65.1,29.61,SW,225,4.0,6.0,88,0.00,,,0.00,meteohub,2013-09-16 13:07:00,
2013-09-16 07:12:00,69.3,65.3,29.61,South,180,4.0,6.0,87,0.00,,,0.00,meteohub,2013-09-16 13:12:00,
2013-09-16 07:17:00,69.6,65.7,29.61,South,180,6.0,6.0,87,0.00,,,0.00,meteohub,2013-09-16 13:17:00,
2013-09-16 07:22:00,69.6,65.3,29.61,SE,135,5.0,8.0,86,0.00,,,0.00,meteohub,2013-09-16 13:22:00,
2013-09-16 07:27:00,69.6,64.9,29.61,SE,135,5.0,8.0,85,0.00,,,0.00,meteohub,2013-09-16 13:27:00,
2013-09-16 07:32:00,69.8,64.8,29.61,South,180,7.0,8.0,84,0.00,,,0.00,meteohub,2013-09-16 13:32:00,
2013-09-16 07:37:00,70.0,64.9,29.60,SE,135,6.0,8.0,84,0.00,,,0.00,meteohub,2013-09-16 13:37:00,
2013-09-16 07:42:00,70.2,65.1,29.60,South,180,8.0,8.0,84,0.00,,,0.00,meteohub,2013-09-16 13:42:00,
2013-09-16 07:47:00,70.5,65.8,29.61,South,180,5.0,11.0,85,0.00,,,0.00,meteohub,2013-09-16 13:47:00,
2013-09-16 07:52:00,70.7,65.7,29.61,South,180,6.0,11.0,84,0.00,,,0.00,meteohub,2013-09-16 13:52:00,
2013-09-16 07:57:00,70.5,65.8,29.61,South,180,5.0,10.0,85,0.00,,,0.00,meteohub,2013-09-16 13:57:00,
2013-09-16 08:02:00,71.4,66.4,29.61,SE,135,6.0,6.0,84,0.00,,,0.00,meteohub,2013-09-16 14:02:00,
2013-09-16 08:07:00,72.0,66.2,29.61,SE,135,4.0,6.0,82,0.00,,,0.00,meteohub,2013-09-16 14:07:00,
2013-09-16 08:12:00,72.5,66.0,29.62,SE,135,3.0,6.0,80,0.00,,,0.00,meteohub,2013-09-16 14:12:00,
2013-09-16 08:17:00,73.2,66.4,29.62,South,180,2.0,6.0,79,0.00,,,0.00,meteohub,2013-09-16 14:17:00,
2013-09-16 08:22:00,74.1,66.7,29.62,South,180,2.0,6.0,78,0.00,,,0.00,meteohub,2013-09-16 14:22:00,
2013-09-16 08:27:00,74.3,65.8,29.61,NW,315,1.0,4.0,75,0.00,,,0.00,meteohub,2013-09-16 14:27:00,
2013-09-16 08:32:00,74.7,65.8,29.61,NW,315,2.0,4.0,74,0.00,,,0.00,meteohub,2013-09-16 14:32:00,
2013-09-16 08:37:00,75.7,65.7,29.62,North,0,4.0,4.0,71,0.00,,,0.00,meteohub,2013-09-16 14:37:00,
2013-09-16 08:42:00,76.3,65.3,29.61,NW,315,3.0,6.0,69,0.00,,,0.00,meteohub,2013-09-16 14:42:00,
2013-09-16 08:47:00,77.0,64.8,29.61,NW,315,4.0,6.0,66,0.00,,,0.00,meteohub,2013-09-16 14:47:00,
2013-09-16 08:52:00,77.2,64.9,29.61,NNW,338,2.0,6.0,66,0.00,,,0.00,meteohub,2013-09-16 14:52:00,
2013-09-16 08:57:00,77.9,64.8,29.61,NE,45,6.0,6.0,64,0.00,,,0.00,meteohub,2013-09-16 14:57:00,
2013-09-16 09:02:00,77.7,64.9,29.62,North,0,3.0,6.0,65,0.00,,,0.00,meteohub,2013-09-16 15:02:00,
2013-09-16 09:07:00,77.9,64.8,29.62,East,90,3.0,6.0,64,0.00,,,0.00,meteohub,2013-09-16 15:07:00,
2013-09-16 09:12:00,77.9,64.8,29.61,NW,315,4.0,6.0,64,0.00,,,0.00,meteohub,2013-09-16 15:12:00,
2013-09-16 09:17:00,77.7,64.9,29.61,NE,45,3.0,5.0,65,0.00,,,0.00,meteohub,2013-09-16 15:17:00,
2013-09-16 09:22:00,78.3,65.5,29.62,North,0,6.0,6.0,65,0.00,,,0.00,meteohub,2013-09-16 15:22:00,
2013-09-16 09:31:00,78.1,65.3,29.61,North,0,4.0,7.0,65,0.00,,,0.00,meteohub,2013-09-16 15:31:00,
2013-09-16 09:37:00,78.8,64.8,29.60,NE,45,2.0,7.0,62,0.00,,,0.00,meteohub,2013-09-16 15:37:00,
2013-09-16 09:42:00,78.8,65.1,29.60,North,0,5.0,7.0,63,0.00,,,0.00,meteohub,2013-09-16 15:42:00,
2013-09-16 09:47:00,79.0,64.8,29.59,SE,135,4.0,7.0,62,0.00,,,0.00,meteohub,2013-09-16 15:47:00,
2013-09-16 09:52:00,79.9,65.7,29.59,North,0,4.0,10.0,62,0.00,,,0.00,meteohub,2013-09-16 15:52:00,
2013-09-16 09:57:00,79.3,65.7,29.60,West,270,5.0,10.0,63,0.00,,,0.00,meteohub,2013-09-16 15:57:00,
2013-09-16 10:02:00,79.0,65.8,29.58,SW,225,8.0,10.0,64,0.00,,,0.00,meteohub,2013-09-16 16:02:00,
2013-09-16 10:07:00,78.6,66.4,29.58,NW,315,9.0,10.0,66,0.00,,,0.00,meteohub,2013-09-16 16:07:00,
2013-09-16 10:12:00,78.4,66.6,29.59,NW,315,5.0,11.0,67,0.00,,,0.00,meteohub,2013-09-16 16:12:00,
2013-09-16 10:17:00,78.6,67.1,29.59,West,270,9.0,11.0,68,0.00,,,0.00,meteohub,2013-09-16 16:17:00,
2013-09-16 10:22:00,78.4,66.9,29.59,NW,315,9.0,14.0,68,0.00,,,0.00,meteohub,2013-09-16 16:22:00,
2013-09-16 10:27:00,78.3,66.4,29.58,West,270,8.0,14.0,67,0.00,,,0.00,meteohub,2013-09-16 16:27:00,
2013-09-16 10:32:00,78.4,66.9,29.58,NW,315,5.0,14.0,68,0.00,,,0.00,meteohub,2013-09-16 16:32:00,
2013-09-16 10:37:00,79.0,66.6,29.57,North,0,4.0,10.0,66,0.00,,,0.00,meteohub,2013-09-16 16:37:00,
2013-09-16 10:42:00,79.7,66.9,29.56,NW,315,4.0,10.0,65,0.00,,,0.00,meteohub,2013-09-16 16:42:00,
2013-09-16 10:47:00,80.4,67.1,29.56,NW,315,7.0,10.0,64,0.00,,,0.00,meteohub,2013-09-16 16:47:00,
2013-09-16 10:52:00,80.1,66.4,29.56,NW,315,5.0,10.0,63,0.00,,,0.00,meteohub,2013-09-16 16:52:00,
2013-09-16 10:57:00,79.9,67.1,29.55,NW,315,4.0,10.0,65,0.00,,,0.00,meteohub,2013-09-16 16:57:00,
2013-09-16 11:02:00,78.8,67.3,29.55,NW,315,9.0,10.0,68,0.00,,,0.00,meteohub,2013-09-16 17:02:00,
2013-09-16 11:07:00,78.6,68.0,29.55,NW,315,5.0,12.0,70,0.00,,,0.00,meteohub,2013-09-16 17:07:00,
2013-09-16 11:12:00,78.8,67.3,29.54,West,270,4.0,12.0,68,0.00,,,0.00,meteohub,2013-09-16 17:12:00,
2013-09-16 11:17:00,79.3,67.8,29.54,West,270,12.0,12.0,68,0.00,,,0.00,meteohub,2013-09-16 17:17:00,
2013-09-16 11:22:00,78.8,66.6,29.54,SW,225,8.0,12.0,66,0.00,,,0.00,meteohub,2013-09-16 17:22:00,
2013-09-16 11:27:00,79.2,66.7,29.53,West,270,5.0,12.0,66,0.00,,,0.00,meteohub,2013-09-16 17:27:00,
2013-09-16 11:32:00,79.3,66.6,29.52,West,270,5.0,12.0,65,0.00,,,0.00,meteohub,2013-09-16 17:32:00,
2013-09-16 11:37:00,79.3,66.6,29.52,WNW,293,4.0,11.0,65,0.00,,,0.00,meteohub,2013-09-16 17:37:00,
2013-09-16 11:42:00,80.1,66.7,29.52,West,270,7.0,8.0,64,0.00,,,0.00,meteohub,2013-09-16 17:42:00,
2013-09-16 11:47:00,79.5,66.7,29.51,NW,315,7.0,13.0,65,0.00,,,0.00,meteohub,2013-09-16 17:47:00,
2013-09-16 11:52:00,79.2,67.6,29.52,NW,315,8.0,13.0,68,0.00,,,0.00,meteohub,2013-09-16 17:52:00,
2013-09-16 11:57:00,79.3,67.5,29.50,NW,315,4.0,13.0,67,0.00,,,0.00,meteohub,2013-09-16 17:57:00,
2013-09-16 12:02:00,80.2,67.8,29.49,North,0,6.0,9.0,66,0.00,,,0.00,meteohub,2013-09-16 18:02:00,
2013-09-16 12:12:00,79.5,66.7,29.49,NW,315,5.0,9.0,65,0.00,,,0.00,meteohub,2013-09-16 18:12:00,
2013-09-16 12:17:00,80.1,68.2,29.48,NW,315,11.0,11.0,67,0.00,,,0.00,meteohub,2013-09-16 18:17:00,
2013-09-16 12:22:00,80.2,68.4,29.48,North,0,4.0,14.0,67,0.00,,,0.00,meteohub,2013-09-16 18:22:00,
2013-09-16 12:27:00,81.0,67.6,29.47,North,0,4.0,14.0,64,0.00,,,0.00,meteohub,2013-09-16 18:27:00,
2013-09-16 12:32:00,81.9,68.0,29.47,NW,315,9.0,14.0,63,0.00,,,0.00,meteohub,2013-09-16 18:32:00,
2013-09-16 12:37:00,81.0,67.1,29.47,NW,315,7.0,13.0,63,0.00,,,0.00,meteohub,2013-09-16 18:37:00,
2013-09-16 12:42:00,80.6,67.8,29.46,NE,45,4.0,13.0,65,0.00,,,0.00,meteohub,2013-09-16 18:42:00,
2013-09-16 12:47:00,81.0,67.6,29.45,NW,315,8.0,13.0,64,0.00,,,0.00,meteohub,2013-09-16 18:47:00,
2013-09-16 12:52:00,80.4,68.0,29.45,North,0,3.0,11.0,66,0.00,,,0.00,meteohub,2013-09-16 18:52:00,
2013-09-16 12:57:00,80.2,67.8,29.45,NE,45,11.0,11.0,66,0.00,,,0.00,meteohub,2013-09-16 18:57:00,
2013-09-16 13:02:00,79.0,67.5,29.45,North,0,6.0,13.0,68,0.00,,,0.00,meteohub,2013-09-16 19:02:00,
2013-09-16 13:07:00,79.2,67.6,29.46,NW,315,7.0,13.0,68,0.00,,,0.00,meteohub,2013-09-16 19:07:00,
2013-09-16 13:12:00,79.0,67.5,29.44,North,0,6.0,13.0,68,0.00,,,0.00,meteohub,2013-09-16 19:12:00,
2013-09-16 13:17:00,78.6,67.6,29.44,North,0,9.0,10.0,69,0.00,,,0.00,meteohub,2013-09-16 19:17:00,
2013-09-16 13:22:00,78.3,68.0,29.44,West,270,4.0,11.0,71,0.00,,,0.00,meteohub,2013-09-16 19:22:00,
2013-09-16 13:27:00,78.3,68.0,29.44,NW,315,4.0,11.0,71,0.00,,,0.00,meteohub,2013-09-16 19:27:00,
2013-09-16 13:32:00,78.3,67.6,29.44,NW,315,4.0,11.0,70,0.00,,,0.00,meteohub,2013-09-16 19:32:00,
2013-09-16 13:37:00,78.4,68.2,29.44,West,270,7.0,8.0,71,0.00,,,0.00,meteohub,2013-09-16 19:37:00,
2013-09-16 13:42:00,77.9,67.3,29.44,North,0,11.0,11.0,70,0.00,,,0.00,meteohub,2013-09-16 19:42:00,
2013-09-16 13:47:00,77.5,67.8,29.44,North,0,10.0,12.0,72,0.00,,,0.00,meteohub,2013-09-16 19:47:00,
2013-09-16 13:52:00,77.4,67.3,29.43,NNE,23,10.0,12.0,71,0.00,,,0.00,meteohub,2013-09-16 19:52:00,
2013-09-16 13:57:00,77.4,67.6,29.44,North,0,1.0,12.0,72,0.00,,,0.00,meteohub,2013-09-16 19:57:00,
2013-09-16 14:02:00,77.2,67.8,29.45,West,270,11.0,11.0,73,0.00,,,0.00,meteohub,2013-09-16 20:02:00,
2013-09-16 14:07:00,76.8,68.7,29.44,NE,45,3.0,11.0,76,0.00,,,0.00,meteohub,2013-09-16 20:07:00,
2013-09-16 14:12:00,76.5,68.7,29.45,West,270,5.0,11.0,77,0.00,,,0.00,meteohub,2013-09-16 20:12:00,
2013-09-16 14:17:00,76.1,69.8,29.45,West,270,13.0,13.0,81,0.00,,,0.00,meteohub,2013-09-16 20:17:00,
2013-09-16 14:22:00,73.0,68.9,29.47,West,270,17.0,17.0,87,0.02,,,0.02,meteohub,2013-09-16 20:22:00,
2013-09-16 14:27:00,69.4,65.1,29.47,South,180,15.0,24.0,86,0.37,,,0.37,meteohub,2013-09-16 20:27:00,
2013-09-16 14:32:00,68.5,65.8,29.47,SW,225,12.0,30.0,91,0.57,,,0.57,meteohub,2013-09-16 20:32:00,
2013-09-16 14:37:00,67.8,66.6,29.48,SW,225,11.0,30.0,96,0.66,,,0.66,meteohub,2013-09-16 20:37:00,
2013-09-16 14:42:00,67.8,67.5,29.49,South,180,5.0,16.0,99,0.78,,,0.78,meteohub,2013-09-16 20:42:00,
2013-09-16 14:47:00,67.6,67.3,29.49,SE,135,7.0,14.0,99,0.86,,,0.84,meteohub,2013-09-16 20:47:00,
2013-09-16 14:52:00,67.8,67.5,29.49,SE,135,2.0,14.0,99,0.92,,,0.92,meteohub,2013-09-16 20:52:00,
2013-09-16 14:57:00,67.8,67.5,29.51,NW,315,4.0,9.0,99,0.99,,,0.99,meteohub,2013-09-16 20:57:00,
2013-09-16 15:02:00,68.0,67.6,29.50,West,270,0.0,9.0,99,1.04,,,1.04,meteohub,2013-09-16 21:02:00,
2013-09-16 15:07:00,68.0,67.6,29.50,East,90,3.0,5.0,99,1.06,,,1.06,meteohub,2013-09-16 21:07:00,
2013-09-16 15:12:00,68.2,67.8,29.50,SE,135,4.0,4.0,99,1.10,,,1.10,meteohub,2013-09-16 21:12:00,
2013-09-16 15:17:00,68.2,67.8,29.50,SE,135,1.0,4.0,99,1.13,,,1.13,meteohub,2013-09-16 21:17:00,
2013-09-16 15:22:00,67.8,67.5,29.50,South,180,6.0,6.0,99,1.07,,,1.20,meteohub,2013-09-16 21:22:00,
2013-09-16 15:27:00,67.6,67.3,29.50,SE,135,5.0,6.0,99,0.83,,,1.25,meteohub,2013-09-16 21:27:00,
2013-09-16 15:32:00,67.6,67.3,29.50,SE,135,8.0,8.0,99,0.66,,,1.26,meteohub,2013-09-16 21:32:00,
2013-09-16 15:37:00,67.8,67.5,29.51,South,180,6.0,9.0,99,0.59,,,1.30,meteohub,2013-09-16 21:37:00,
2013-09-16 15:42:00,67.6,67.3,29.51,East,90,2.0,9.0,99,0.54,,,1.32,meteohub,2013-09-16 21:42:00,
2013-09-16 15:47:00,67.5,67.1,29.51,SE,135,3.0,9.0,99,0.46,,,1.35,meteohub,2013-09-16 21:47:00,
2013-09-16 15:52:00,67.5,67.1,29.51,SE,135,0.0,8.0,99,0.41,,,1.36,meteohub,2013-09-16 21:52:00,
2013-09-16 15:57:00,67.6,67.3,29.51,North,0,4.0,4.0,99,0.38,,,1.37,meteohub,2013-09-16 21:57:00,
2013-09-16 16:02:00,67.6,67.3,29.53,ESE,113,7.0,7.0,99,0.32,,,1.38,meteohub,2013-09-16 22:02:00,
2013-09-16 16:07:00,67.5,67.1,29.53,SE,135,1.0,11.0,99,0.40,,,1.46,meteohub,2013-09-16 22:07:00,
2013-09-16 16:12:00,67.3,66.9,29.54,NE,45,6.0,11.0,99,0.38,,,1.49,meteohub,2013-09-16 22:12:00,
2013-09-16 16:17:00,67.3,66.9,29.55,NE,45,4.0,11.0,99,0.34,,,1.51,meteohub,2013-09-16 22:17:00,
2013-09-16 16:22:00,67.3,66.9,29.55,NE,45,0.0,6.0,99,0.33,,,1.55,meteohub,2013-09-16 22:22:00,
2013-09-16 16:28:00,67.3,66.9,29.56,NE,45,0.0,6.0,99,0.31,,,1.56,meteohub,2013-09-16 22:28:00,
2013-09-16 16:33:00,67.3,66.9,29.56,NE,45,2.0,6.0,99,0.28,,,1.56,meteohub,2013-09-16 22:33:00,
2013-09-16 16:38:00,67.3,66.9,29.56,North,0,0.0,2.0,99,0.25,,,1.56,meteohub,2013-09-16 22:38:00,
2013-09-16 16:43:00,67.3,66.9,29.57,North,0,1.0,2.0,99,0.22,,,1.56,meteohub,2013-09-16 22:43:00,
2013-09-16 16:48:00,67.5,67.1,29.57,SE,135,0.0,2.0,99,0.20,,,1.56,meteohub,2013-09-16 22:48:00,
2013-09-16 16:53:00,67.3,66.9,29.58,North,0,0.0,2.0,99,0.21,,,1.57,meteohub,2013-09-16 22:53:00,
2013-09-16 16:58:00,67.3,66.9,29.58,NE,45,2.0,2.0,99,0.20,,,1.57,meteohub,2013-09-16 22:58:00,
2013-09-16 17:03:00,67.1,66.7,29.59,North,0,0.0,2.0,99,0.19,,,1.58,meteohub,2013-09-16 23:03:00,
2013-09-16 17:08:00,67.1,66.7,29.58,North,0,0.0,2.0,99,0.11,,,1.58,meteohub,2013-09-16 23:08:00,
2013-09-16 17:13:00,67.1,66.7,29.60,North,0,3.0,3.0,99,0.11,,,1.61,meteohub,2013-09-16 23:13:00,
2013-09-16 17:18:00,67.1,66.7,29.60,North,0,4.0,4.0,99,0.11,,,1.63,meteohub,2013-09-16 23:18:00,
2013-09-16 17:23:00,67.1,66.7,29.60,NE,45,4.0,4.0,99,0.07,,,1.63,meteohub,2013-09-16 23:23:00,
2013-09-16 17:28:00,66.9,66.6,29.61,North,0,4.0,6.0,99,0.09,,,1.65,meteohub,2013-09-16 23:28:00,
2013-09-16 17:33:00,66.9,66.6,29.60,North,0,3.0,6.0,99,0.12,,,1.67,meteohub,2013-09-16 23:33:00,
2013-09-16 17:38:00,66.9,66.6,29.60,North,0,2.0,6.0,99,0.12,,,1.68,meteohub,2013-09-16 23:38:00,
2013-09-16 17:43:00,66.7,66.4,29.61,NW,315,2.0,5.0,99,0.14,,,1.70,meteohub,2013-09-16 23:43:00,
2013-09-16 17:48:00,66.7,66.4,29.61,NE,45,0.0,3.0,99,0.15,,,1.71,meteohub,2013-09-16 23:48:00,
2013-09-16 17:53:00,66.7,66.4,29.62,North,0,2.0,3.0,99,0.18,,,1.75,meteohub,2013-09-16 23:53:00,
2013-09-16 17:58:00,66.7,66.4,29.62,North,0,2.0,3.0,99,0.20,,,1.77,meteohub,2013-09-16 23:58:00,
2013-09-16 18:03:00,66.7,66.4,29.62,East,90,4.0,4.0,99,0.20,,,1.78,meteohub,2013-09-17 00:03:00,
2013-09-16 18:08:00,66.7,66.4,29.61,East,90,3.0,4.0,99,0.22,,,1.82,meteohub,2013-09-17 00:08:00,
2013-09-16 18:13:00,66.9,66.6,29.62,East,90,3.0,4.0,99,0.22,,,1.84,meteohub,2013-09-17 00:13:00,
2013-09-16 18:18:00,66.9,66.6,29.62,SE,135,2.0,4.0,99,0.21,,,1.84,meteohub,2013-09-17 00:18:00,
2013-09-16 18:23:00,66.9,66.6,29.62,SE,135,3.0,4.0,99,0.22,,,1.87,meteohub,2013-09-17 00:23:00,
2013-09-16 18:28:00,66.9,66.6,29.61,SE,135,4.0,4.0,99,0.24,,,1.88,meteohub,2013-09-17 00:28:00,
2013-09-16 18:33:00,66.7,66.4,29.62,SE,135,4.0,4.0,99,0.22,,,1.90,meteohub,2013-09-17 00:33:00,
2013-09-16 18:38:00,66.7,66.4,29.61,ESE,113,2.0,4.0,99,0.25,,,1.94,meteohub,2013-09-17 00:38:00,
2013-09-16 18:43:00,66.7,66.4,29.62,East,90,3.0,4.0,99,0.22,,,1.94,meteohub,2013-09-17 00:43:00,
2013-09-16 18:48:00,66.6,66.2,29.61,SE,135,2.0,4.0,99,0.22,,,1.95,meteohub,2013-09-17 00:48:00,
2013-09-16 18:53:00,66.6,66.2,29.61,East,90,0.0,3.0,99,0.20,,,1.96,meteohub,2013-09-17 00:53:00,
2013-09-16 18:58:00,66.6,66.2,29.60,SE,135,3.0,3.0,99,0.19,,,1.96,meteohub,2013-09-17 00:58:00,
2013-09-16 19:03:00,66.6,66.2,29.60,South,180,2.0,3.0,99,0.18,,,1.97,meteohub,2013-09-17 01:03:00,
2013-09-16 19:08:00,66.7,66.4,29.60,SE,135,2.0,4.0,99,0.15,,,1.97,meteohub,2013-09-17 01:08:00,
2013-09-16 19:13:00,66.6,66.2,29.60,South,180,0.0,4.0,99,0.14,,,1.98,meteohub,2013-09-17 01:13:00,
2013-09-16 19:18:00,66.6,66.2,29.60,South,180,0.0,4.0,99,0.13,,,1.98,meteohub,2013-09-17 01:18:00,
2013-09-16 19:23:00,66.4,66.0,29.59,South,180,2.0,4.0,99,0.12,,,1.98,meteohub,2013-09-17 01:23:00,
2013-09-16 19:28:00,66.4,66.0,29.60,West,270,0.0,2.0,99,0.09,,,1.98,meteohub,2013-09-17 01:28:00,
2013-09-16 19:34:00,66.4,66.0,29.59,NE,45,0.0,2.0,99,0.07,,,1.98,meteohub,2013-09-17 01:34:00,
2013-09-16 19:39:00,66.4,66.0,29.60,East,90,2.0,2.0,99,0.05,,,1.98,meteohub,2013-09-17 01:39:00,
2013-09-16 19:44:00,66.4,66.0,29.59,East,90,2.0,2.0,99,0.05,,,1.98,meteohub,2013-09-17 01:44:00,
2013-09-16 19:49:00,66.4,66.0,29.59,NE,45,2.0,2.0,99,0.05,,,2.00,meteohub,2013-09-17 01:49:00,
2013-09-16 19:54:00,66.4,66.0,29.58,North,0,0.0,3.0,99,0.04,,,2.00,meteohub,2013-09-17 01:54:00,
2013-09-16 19:59:00,66.6,66.2,29.58,NE,45,0.0,3.0,99,0.04,,,2.00,meteohub,2013-09-17 01:59:00,
2013-09-16 20:04:00,66.6,66.2,29.58,NW,315,0.0,3.0,99,0.02,,,2.00,meteohub,2013-09-17 02:04:00,
2013-09-16 20:09:00,66.6,66.2,29.58,North,0,1.0,0.0,99,0.02,,,2.00,meteohub,2013-09-17 02:09:00,
2013-09-16 20:14:00,66.4,66.0,29.58,North,0,4.0,4.0,99,0.01,,,2.00,meteohub,2013-09-17 02:14:00,
2013-09-16 20:19:00,66.4,66.0,29.57,NW,315,3.0,4.0,99,0.01,,,2.00,meteohub,2013-09-17 02:19:00,
2013-09-16 20:24:00,66.4,66.0,29.59,NE,45,3.0,4.0,99,0.01,,,2.00,meteohub,2013-09-17 02:24:00,
2013-09-16 20:29:00,66.4,66.0,29.58,North,0,3.0,4.0,99,0.01,,,2.00,meteohub,2013-09-17 02:29:00,
2013-09-16 20:34:00,66.4,66.0,29.58,East,90,0.0,4.0,99,0.01,,,2.00,meteohub,2013-09-17 02:34:00,
2013-09-16 20:39:00,66.4,66.0,29.60,SE,135,4.0,4.0,99,0.01,,,2.00,meteohub,2013-09-17 02:39:00,
2013-09-16 20:44:00,66.4,66.0,29.58,East,90,0.0,4.0,99,0.00,,,2.00,meteohub,2013-09-17 02:44:00,
2013-09-16 20:49:00,66.4,66.0,29.59,NW,315,0.0,4.0,99,0.00,,,2.00,meteohub,2013-09-17 02:49:00,
2013-09-16 20:54:00,66.4,66.0,29.58,East,90,0.0,4.0,99,0.00,,,2.00,meteohub,2013-09-17 02:54:00,
2013-09-16 20:59:00,66.4,66.0,29.59,NE,45,3.0,3.0,99,0.00,,,2.00,meteohub,2013-09-17 02:59:00,
2013-09-16 21:04:00,66.4,66.0,29.59,SE,135,1.0,3.0,99,0.00,,,2.00,meteohub,2013-09-17 03:04:00,
2013-09-16 21:09:00,66.4,66.0,29.59,SE,135,5.0,5.0,99,0.00,,,2.00,meteohub,2013-09-17 03:09:00,
2013-09-16 21:14:00,66.4,66.0,29.58,NE,45,3.0,7.0,99,0.00,,,2.00,meteohub,2013-09-17 03:14:00,
2013-09-16 21:19:00,66.4,66.0,29.58,SE,135,5.0,7.0,99,0.00,,,2.00,meteohub,2013-09-17 03:19:00,
2013-09-16 21:24:00,66.4,66.0,29.59,SE,135,2.0,7.0,99,0.00,,,2.00,meteohub,2013-09-17 03:24:00,
2013-09-16 21:29:00,66.2,65.8,29.61,ESE,113,8.0,8.0,99,0.00,,,2.00,meteohub,2013-09-17 03:29:00,
2013-09-16 21:34:00,66.0,65.7,29.60,SE,135,7.0,8.0,99,0.00,,,2.00,meteohub,2013-09-17 03:34:00,
2013-09-16 21:39:00,66.0,65.7,29.60,SE,135,5.0,8.0,99,0.00,,,2.00,meteohub,2013-09-17 03:39:00,
2013-09-16 21:44:00,65.8,65.5,29.60,SE,135,4.0,8.0,99,0.00,,,2.00,meteohub,2013-09-17 03:44:00,
2013-09-16 21:49:00,65.8,65.5,29.59,South,180,5.0,8.0,99,0.00,,,2.00,meteohub,2013-09-17 03:49:00,
2013-09-16 21:54:00,65.8,65.5,29.60,South,180,0.0,7.0,99,0.00,,,2.00,meteohub,2013-09-17 03:54:00,
2013-09-16 21:59:00,65.8,65.3,29.60,SE,135,0.0,6.0,98,0.00,,,2.00,meteohub,2013-09-17 03:59:00,
2013-09-16 22:01:00,65.8,65.3,29.59,South,180,0.0,5.0,98,0.00,,,2.00,meteohub,2013-09-17 04:01:00,
2013-09-16 22:02:00,65.8,65.5,29.60,SE,135,0.0,5.0,99,0.00,,,2.00,meteohub,2013-09-17 04:02:00,
2013-09-16 22:07:00,65.8,65.5,29.60,SE,135,4.0,4.0,99,0.00,,,2.00,meteohub,2013-09-17 04:07:00,
2013-09-16 22:12:00,65.8,65.5,29.60,East,90,4.0,4.0,99,0.00,,,2.00,meteohub,2013-09-17 04:12:00,
2013-09-16 22:17:00,65.8,65.5,29.60,SE,135,4.0,5.0,99,0.00,,,2.00,meteohub,2013-09-17 04:17:00,
2013-09-16 22:22:00,65.8,65.3,29.60,SE,135,4.0,5.0,98,0.00,,,2.00,meteohub,2013-09-17 04:22:00,
2013-09-16 22:27:00,66.0,65.5,29.60,SE,135,7.0,7.0,98,0.00,,,2.00,meteohub,2013-09-17 04:27:00,
2013-09-16 22:32:00,65.8,65.3,29.60,SE,135,4.0,8.0,98,0.00,,,2.00,meteohub,2013-09-17 04:32:00,
2013-09-16 22:37:00,66.0,65.1,29.60,East,90,4.0,8.0,97,0.00,,,2.00,meteohub,2013-09-17 04:37:00,
2013-09-16 22:42:00,66.0,65.1,29.60,NE,45,5.0,8.0,97,0.00,,,2.00,meteohub,2013-09-17 04:42:00,
2013-09-16 22:48:00,66.2,64.8,29.60,NE,45,0.0,6.0,95,0.00,,,2.00,meteohub,2013-09-17 04:48:00,
2013-09-16 22:53:00,66.0,64.6,29.60,NW,315,0.0,6.0,95,0.00,,,2.00,meteohub,2013-09-17 04:53:00,
2013-09-16 22:58:00,65.8,64.4,29.61,North,0,0.0,6.0,95,0.00,,,2.00,meteohub,2013-09-17 04:58:00,
2013-09-16 23:03:00,65.7,64.4,29.60,NE,45,0.0,4.0,96,0.00,,,2.00,meteohub,2013-09-17 05:03:00,
2013-09-16 23:08:00,65.8,64.4,29.60,North,0,0.0,2.0,95,0.00,,,2.00,meteohub,2013-09-17 05:08:00,
2013-09-16 23:13:00,65.7,64.2,29.60,NE,45,0.0,1.0,95,0.00,,,2.00,meteohub,2013-09-17 05:13:00,
2013-09-16 23:18:00,65.7,64.2,29.60,East,90,0.0,1.0,95,0.00,,,2.00,meteohub,2013-09-17 05:18:00,
2013-09-16 23:23:00,65.8,64.0,29.60,NE,45,0.0,2.0,94,0.00,,,2.00,meteohub,2013-09-17 05:23:00,
2013-09-16 23:28:00,65.8,63.5,29.59,NE,45,4.0,4.0,92,0.00,,,2.00,meteohub,2013-09-17 05:28:00,
2013-09-16 23:33:00,66.2,62.6,29.59,NE,45,4.0,4.0,88,0.00,,,2.00,meteohub,2013-09-17 05:33:00,
2013-09-16 23:38:00,66.4,62.4,29.58,NE,45,6.0,7.0,87,0.00,,,2.00,meteohub,2013-09-17 05:38:00,
2013-09-16 23:43:00,66.4,62.4,29.59,NE,45,8.0,8.0,87,0.00,,,2.00,meteohub,2013-09-17 05:43:00,
2013-09-16 23:48:00,66.4,62.4,29.58,NE,45,10.0,10.0,87,0.00,,,2.00,meteohub,2013-09-17 05:48:00,
2013-09-16 23:53:00,66.6,63.0,29.58,NE,45,8.0,11.0,88,0.00,,,2.00,meteohub,2013-09-17 05:53:00,
2013-09-16 23:58:00,66.4,63.0,29.59,NE,45,8.0,11.0,89,0.00,,,2.00,meteohub,2013-09-17 05:58:00,